< < Back
Terminal Aerodrome Forecast


Current Version              Previous Versions:   1  2  3  4  5  6  7  8  9  

Terminal Aerodrome Forecast

688
FTUS42 KFFC 301139
TAFCSG
TAF
KCSG 301139Z 3012/3112 00000KT P6SM SKC
     FM301600 32007KT P6SM FEW045
     FM310100 35003KT P6SM FEW250=



Latest METAR

620
SAUS70 KWBC 310500 RRA
MTRCSG
METAR KCSG 310451Z AUTO 06003KT 10SM CLR 23/18 A2992 RMK AO2 SLP127
T02330183 403440200


USA.gov is the U.S. government's official web portal to all federal, state and local government web resources and services.